createdAt,value
2019-01-16T00:00:13.546Z,13.87
2019-01-16T00:03:14.196Z,12.47
2019-01-16T00:06:14.463Z,12.90
2019-01-16T00:09:14.538Z,11.03
2019-01-16T00:12:14.316Z,10.70
2019-01-16T00:15:17.458Z,11.43
2019-01-16T00:18:20.275Z,10.40
2019-01-16T00:21:08.795Z,10.30
2019-01-16T00:24:08.423Z,10.07
2019-01-16T00:27:07.900Z,11.50
2019-01-16T00:29:56.978Z,10.43
2019-01-16T00:32:57.300Z,11.07
2019-01-16T00:35:56.998Z,10.50
2019-01-16T00:38:57.298Z,12.10
2019-01-16T00:41:57.658Z,10.00
2019-01-16T00:44:57.705Z,13.00
2019-01-16T00:47:49.527Z,13.50
2019-01-16T00:50:49.830Z,14.03
2019-01-16T00:53:52.299Z,12.63
2019-01-16T00:56:43.055Z,13.93
2019-01-16T00:59:45.953Z,12.93
2019-01-16T01:02:46.005Z,13.73
2019-01-16T01:05:36.143Z,15.63
2019-01-16T01:08:32.578Z,13.30
2019-01-16T01:11:32.060Z,14.67
2019-01-16T01:14:34.770Z,15.63
2019-01-16T01:17:34.974Z,12.60
2019-01-16T01:20:34.359Z,12.40
2019-01-16T01:23:34.476Z,13.10
2019-01-16T01:26:34.617Z,11.97
2019-01-16T01:29:34.733Z,15.27
2019-01-16T01:32:28.652Z,11.90
2019-01-16T01:35:28.081Z,10.70
2019-01-16T01:38:28.459Z,10.77
2019-01-16T01:41:28.775Z,12.43
2019-01-16T01:44:29.168Z,12.27
2019-01-16T01:47:26.835Z,13.30
2019-01-16T01:50:19.143Z,9.80
2019-01-16T01:53:25.422Z,8.77
2019-01-16T01:56:25.692Z,11.20
2019-01-16T01:59:25.176Z,9.10
2019-01-16T02:02:19.437Z,9.13
2019-01-16T02:05:09.825Z,8.83
2019-01-16T02:08:10.410Z,8.80
2019-01-16T02:11:10.690Z,8.60
2019-01-16T02:14:10.203Z,13.57
2019-01-16T02:16:59.913Z,8.37
2019-01-16T02:19:56.246Z,11.03
2019-01-16T02:22:56.216Z,7.70
2019-01-16T02:25:56.519Z,9.10
2019-01-16T02:28:55.367Z,13.23
2019-01-16T02:31:54.806Z,11.33
2019-01-16T02:34:54.470Z,9.83
2019-01-16T02:37:46.533Z,10.13
2019-01-16T02:40:46.387Z,8.90
2019-01-16T02:43:46.079Z,7.20
2019-01-16T02:46:45.528Z,7.23
2019-01-16T02:49:45.528Z,6.27
2019-01-16T02:52:45.061Z,7.27
2019-01-16T02:55:36.303Z,7.10
2019-01-16T02:58:27.502Z,6.20
2019-01-16T03:01:16.375Z,6.27
2019-01-16T03:04:16.617Z,7.60
2019-01-16T03:07:04.046Z,5.83
2019-01-16T03:09:55.370Z,6.63
2019-01-16T03:12:55.194Z,9.73
2019-01-16T03:15:54.646Z,5.83
2019-01-16T03:18:54.068Z,7.47
2019-01-16T03:21:53.751Z,7.23
2019-01-16T03:24:53.916Z,6.90
2019-01-16T03:27:49.537Z,7.13
2019-01-16T03:30:38.531Z,7.20
2019-01-16T03:33:38.596Z,6.53
2019-01-16T03:36:38.319Z,8.77
2019-01-16T03:39:37.749Z,7.10
2019-01-16T03:42:28.978Z,9.43
2019-01-16T03:45:22.029Z,7.83
2019-01-16T03:48:25.775Z,9.83
2019-01-16T03:51:25.752Z,8.80
2019-01-16T03:54:25.740Z,8.03
2019-01-16T03:57:20.066Z,10.33
2019-01-16T04:00:20.331Z,8.90
2019-01-16T04:03:22.610Z,8.03
2019-01-16T04:06:22.321Z,7.40
2019-01-16T04:09:25.412Z,7.87
2019-01-16T04:12:25.271Z,7.10
2019-01-16T04:15:27.717Z,9.77
2019-01-16T04:18:27.321Z,6.77
2019-01-16T04:21:27.601Z,7.33
2019-01-16T04:24:27.569Z,6.63
2019-01-16T04:27:27.330Z,10.47
2019-01-16T04:30:29.679Z,7.10
2019-01-16T04:33:32.057Z,9.90
2019-01-16T04:36:31.751Z,7.43
2019-01-16T04:39:31.222Z,11.30
2019-01-16T04:42:20.291Z,7.87
2019-01-16T04:45:19.697Z,9.53
2019-01-16T04:48:17.944Z,9.20
2019-01-16T04:51:21.237Z,8.30
2019-01-16T04:54:14.870Z,8.53
2019-01-16T04:57:08.377Z,7.73
2019-01-16T05:00:08.629Z,9.00
2019-01-16T05:03:08.190Z,7.83
2019-01-16T05:05:58.979Z,9.13
2019-01-16T05:08:59.315Z,7.90
2019-01-16T05:11:54.942Z,7.90
2019-01-16T05:15:00.694Z,6.70
2019-01-16T05:18:01.010Z,7.87
2019-01-16T05:21:00.765Z,8.00
2019-01-16T05:23:51.866Z,8.50
2019-01-16T05:26:44.590Z,7.90
2019-01-16T05:29:46.792Z,8.43
2019-01-16T05:32:46.313Z,7.90
2019-01-16T05:35:45.767Z,6.63
2019-01-16T05:38:45.501Z,7.50
2019-01-16T05:41:51.589Z,7.37
2019-01-16T05:44:51.779Z,6.40
2019-01-16T05:47:46.483Z,5.90
2019-01-16T05:50:46.220Z,9.03
2019-01-16T05:53:46.744Z,6.90
2019-01-16T05:56:47.328Z,6.40
2019-01-16T05:59:41.235Z,5.93
2019-01-16T06:02:41.200Z,7.03
2019-01-16T06:05:34.243Z,5.73
2019-01-16T06:08:33.938Z,5.77
2019-01-16T06:11:33.494Z,8.00
2019-01-16T06:14:33.021Z,5.77
2019-01-16T06:17:33.662Z,5.90
2019-01-16T06:20:29.297Z,7.73
2019-01-16T06:23:20.736Z,6.77
2019-01-16T06:26:13.794Z,6.40
2019-01-16T06:29:13.831Z,6.33
2019-01-16T06:32:13.837Z,6.93
2019-01-16T06:35:10.781Z,6.33
2019-01-16T06:38:04.047Z,5.70
2019-01-16T06:41:06.239Z,6.37
2019-01-16T06:44:06.167Z,6.80
2019-01-16T06:47:05.491Z,7.50
2019-01-16T06:50:01.705Z,6.63
2019-01-16T06:52:55.179Z,6.67
2019-01-16T06:55:54.949Z,7.63
2019-01-16T06:58:44.851Z,8.13
2019-01-16T07:01:44.460Z,8.80
2019-01-16T07:04:43.996Z,6.13
2019-01-16T07:07:36.981Z,6.73
2019-01-16T07:10:28.467Z,7.23
2019-01-16T07:13:28.713Z,10.23
2019-01-16T07:16:21.133Z,6.87
2019-01-16T07:19:14.681Z,7.00
2019-01-16T07:22:14.724Z,7.73
2019-01-16T07:25:08.306Z,6.73
2019-01-16T07:28:08.176Z,6.30
2019-01-16T07:31:02.274Z,5.80
2019-01-16T07:34:02.318Z,7.23
2019-01-16T07:37:02.517Z,6.87
2019-01-16T07:39:53.729Z,6.93
2019-01-16T07:42:53.863Z,5.90
2019-01-16T07:45:46.959Z,6.00
2019-01-16T07:48:49.539Z,5.97
2019-01-16T07:51:49.504Z,5.23
2019-01-16T07:54:49.064Z,5.87
2019-01-16T07:57:44.262Z,6.70
2019-01-16T08:00:44.605Z,6.00
2019-01-16T08:03:46.866Z,5.90
2019-01-16T08:06:38.993Z,5.80
2019-01-16T08:09:39.342Z,5.33
2019-01-16T08:12:38.723Z,5.17
2019-01-16T08:15:40.910Z,7.13
2019-01-16T08:18:32.239Z,4.50
2019-01-16T08:21:33.358Z,6.10
2019-01-16T08:24:24.181Z,6.10
2019-01-16T08:27:17.977Z,4.53
2019-01-16T08:30:12.559Z,4.47
2019-01-16T08:33:18.619Z,5.77
2019-01-16T08:36:18.510Z,5.23
2019-01-16T08:39:20.994Z,4.30
2019-01-16T08:42:20.572Z,4.40
2019-01-16T08:45:20.001Z,5.37
2019-01-16T08:48:19.418Z,4.90
2019-01-16T08:51:19.553Z,4.00
2019-01-16T08:54:18.985Z,4.97
2019-01-16T08:57:19.167Z,4.00
2019-01-16T09:00:19.655Z,4.07
2019-01-16T09:03:19.714Z,4.20
2019-01-16T09:06:19.673Z,3.43
2019-01-16T09:09:19.442Z,4.13
2019-01-16T09:12:15.916Z,2.93
2019-01-16T09:15:16.177Z,3.47
2019-01-16T09:18:04.792Z,4.90
2019-01-16T09:21:05.047Z,3.50
2019-01-16T09:24:03.244Z,2.47
2019-01-16T09:27:02.738Z,3.60
2019-01-16T09:30:02.718Z,3.13
2019-01-16T09:33:02.223Z,5.10
2019-01-16T09:35:52.649Z,6.10
2019-01-16T09:38:52.576Z,2.40
2019-01-16T09:41:52.768Z,4.70
2019-01-16T09:44:52.435Z,3.00
2019-01-16T09:47:55.363Z,6.40
2019-01-16T09:50:52.386Z,2.50
2019-01-16T09:53:52.578Z,2.77
2019-01-16T09:56:51.482Z,1.90
2019-01-16T09:59:51.783Z,3.83
2019-01-16T10:02:51.329Z,3.80
2019-01-16T10:05:51.643Z,3.57
2019-01-16T10:08:41.118Z,3.87
2019-01-16T10:11:41.164Z,3.90
2019-01-16T10:14:40.850Z,5.50
2019-01-16T10:17:35.453Z,3.77
2019-01-16T10:20:35.582Z,4.53
2019-01-16T10:23:38.748Z,4.20
2019-01-16T10:26:32.333Z,2.70
2019-01-16T10:29:22.474Z,4.10
2019-01-16T10:32:15.842Z,6.93
2019-01-16T10:35:18.375Z,7.80
2019-01-16T10:38:21.675Z,3.70
2019-01-16T10:41:21.268Z,2.63
2019-01-16T10:44:13.002Z,3.40
2019-01-16T10:47:12.592Z,2.60
2019-01-16T10:50:18.400Z,2.90
2019-01-16T10:53:18.331Z,2.60
2019-01-16T10:56:15.885Z,3.00
2019-01-16T10:59:04.819Z,4.90
2019-01-16T11:01:51.725Z,3.20
2019-01-16T11:04:51.598Z,4.03
2019-01-16T11:07:51.456Z,3.93
2019-01-16T11:10:45.141Z,4.30
2019-01-16T11:13:45.374Z,3.43
2019-01-16T11:16:45.070Z,2.90
2019-01-16T11:19:44.825Z,3.40
2019-01-16T11:22:44.806Z,4.50
2019-01-16T11:25:51.260Z,2.47
2019-01-16T11:28:51.302Z,3.40
2019-01-16T11:31:51.204Z,3.13
2019-01-16T11:34:42.156Z,3.77
2019-01-16T11:37:41.991Z,3.00
2019-01-16T11:40:41.930Z,3.63
2019-01-16T11:43:42.105Z,3.40
2019-01-16T11:46:48.001Z,4.10
2019-01-16T11:49:47.535Z,3.20
2019-01-16T11:52:47.212Z,5.23
2019-01-16T11:55:47.371Z,3.13
2019-01-16T11:58:54.022Z,3.00
2019-01-16T12:01:54.454Z,4.10
2019-01-16T12:04:54.948Z,3.07
2019-01-16T12:07:47.617Z,4.60
2019-01-16T12:10:45.700Z,4.17
2019-01-16T12:13:38.659Z,6.13
2019-01-16T12:16:31.398Z,4.97
2019-01-16T12:19:24.674Z,5.10
2019-01-16T12:22:24.900Z,5.97
2019-01-16T12:25:24.455Z,6.07
2019-01-16T12:28:31.039Z,6.80
2019-01-16T12:31:18.734Z,6.27
2019-01-16T12:34:12.577Z,6.73
2019-01-16T12:37:17.835Z,8.70
2019-01-16T12:40:20.624Z,4.73
2019-01-16T12:43:16.991Z,6.27
2019-01-16T12:46:10.925Z,5.07
2019-01-16T12:49:06.885Z,5.03
2019-01-16T12:51:59.755Z,7.17
2019-01-16T12:54:59.313Z,6.60
2019-01-16T12:57:47.222Z,6.37
2019-01-16T13:00:48.021Z,6.33
2019-01-16T13:03:51.015Z,9.37
2019-01-16T13:06:56.975Z,6.43
2019-01-16T13:09:56.779Z,7.20
2019-01-16T13:12:56.863Z,8.63
2019-01-16T13:15:57.146Z,8.20
2019-01-16T13:18:51.712Z,9.93
2019-01-16T13:21:51.706Z,8.10
2019-01-16T13:25:00.102Z,6.80
2019-01-16T13:27:52.597Z,8.37
2019-01-16T13:30:58.416Z,10.07
2019-01-16T13:33:52.435Z,8.37
2019-01-16T13:36:47.379Z,7.50
2019-01-16T13:39:45.050Z,7.17
2019-01-16T13:42:44.713Z,9.33
2019-01-16T13:45:42.866Z,8.47
2019-01-16T13:48:42.883Z,10.40
2019-01-16T13:51:32.510Z,12.20
2019-01-16T13:54:38.500Z,7.87
2019-01-16T13:57:38.009Z,7.90
2019-01-16T14:00:28.674Z,13.20
2019-01-16T14:03:16.650Z,11.90
2019-01-16T14:06:16.666Z,10.73
2019-01-16T14:09:04.860Z,13.77
2019-01-16T14:12:11.919Z,10.63
2019-01-16T14:14:59.811Z,10.00
2019-01-16T14:18:07.098Z,8.67
2019-01-16T14:24:18.664Z,11.50
2019-01-16T14:27:25.726Z,12.70
2019-01-16T14:33:48.790Z,11.70
2019-01-16T14:36:55.866Z,9.87
2019-01-16T14:39:51.988Z,15.23
2019-01-16T14:42:59.050Z,12.27
2019-01-16T14:45:58.831Z,11.23
2019-01-16T14:49:05.955Z,10.50
2019-01-16T14:52:13.103Z,10.40
2019-01-16T14:55:20.222Z,9.80
2019-01-16T14:58:27.354Z,16.40
2019-01-16T15:01:34.415Z,9.70
2019-01-16T15:04:33.954Z,10.23
2019-01-16T15:07:26.397Z,14.67
2019-01-16T15:10:18.944Z,10.80
2019-01-16T15:13:19.566Z,11.47
2019-01-16T15:16:19.715Z,12.57
2019-01-16T15:19:19.850Z,11.27
2019-01-16T15:22:16.251Z,12.50
2019-01-16T15:28:14.994Z,11.63
2019-01-16T15:31:15.324Z,10.53
2019-01-16T15:34:14.758Z,10.37
2019-01-16T15:37:14.392Z,11.97
2019-01-16T15:40:14.312Z,10.30
2019-01-16T15:43:08.970Z,11.33
2019-01-16T15:46:03.554Z,13.00
2019-01-16T15:48:59.690Z,11.70
2019-01-16T15:51:50.994Z,10.27
2019-01-16T15:54:51.055Z,10.20
2019-01-16T15:57:50.974Z,10.43
2019-01-16T16:00:50.786Z,9.10
2019-01-16T16:03:50.130Z,11.70
2019-01-16T16:06:49.930Z,7.70
2019-01-16T16:09:52.966Z,8.90
2019-01-16T16:12:52.947Z,12.17
2019-01-16T16:15:52.384Z,16.10
2019-01-16T16:18:57.646Z,9.00
2019-01-16T16:21:57.647Z,10.77
2019-01-16T16:24:57.865Z,8.33
2019-01-16T16:27:57.360Z,7.47
2019-01-16T16:30:56.825Z,6.87
2019-01-16T16:34:02.179Z,10.33
2019-01-16T16:37:01.975Z,10.30
2019-01-16T16:40:04.689Z,10.90
2019-01-16T16:43:05.308Z,11.03
2019-01-16T16:46:05.426Z,14.70
2019-01-16T16:49:05.672Z,12.27
2019-01-16T16:52:05.535Z,9.33
2019-01-16T16:55:05.327Z,7.43
2019-01-16T16:58:04.824Z,11.20
2019-01-16T17:01:05.089Z,9.13
2019-01-16T17:04:05.390Z,7.13
2019-01-16T17:07:07.952Z,6.77
2019-01-16T17:10:07.735Z,10.30
2019-01-16T17:13:08.438Z,9.90
2019-01-16T17:16:00.910Z,21.77
2019-01-16T17:19:00.949Z,12.80
2019-01-16T17:22:06.239Z,7.40
2019-01-16T17:25:06.243Z,11.70
2019-01-16T17:28:06.297Z,13.23
2019-01-16T17:31:06.630Z,12.20
2019-01-16T17:34:06.113Z,13.17
2019-01-16T17:37:05.534Z,7.43
2019-01-16T17:40:04.962Z,10.60
2019-01-16T17:43:05.613Z,10.40
2019-01-16T17:46:08.889Z,11.73
2019-01-16T17:49:08.296Z,11.73
2019-01-16T17:51:56.110Z,8.30
2019-01-16T17:55:03.179Z,7.70
2019-01-16T17:58:06.815Z,7.73
2019-01-16T18:01:13.903Z,15.40
2019-01-16T18:04:13.791Z,8.70
2019-01-16T18:07:13.464Z,12.13
2019-01-16T18:10:19.656Z,6.13
2019-01-16T18:13:09.219Z,9.60
2019-01-16T18:16:08.592Z,8.80
2019-01-16T18:19:08.335Z,10.47
2019-01-16T18:21:58.650Z,15.23
2019-01-16T18:25:01.087Z,10.80
2019-01-16T18:28:01.777Z,10.27
2019-01-16T18:31:02.030Z,9.73
2019-01-16T18:33:58.717Z,13.37
2019-01-16T18:36:58.233Z,11.90
2019-01-16T18:39:58.535Z,8.63
2019-01-16T18:42:58.265Z,9.63
2019-01-16T18:45:58.477Z,12.33
2019-01-16T18:52:14.793Z,8.60
2019-01-16T18:55:14.183Z,10.20
2019-01-16T18:58:13.736Z,11.27
2019-01-16T19:01:13.272Z,12.70
2019-01-16T19:04:07.899Z,10.17
2019-01-16T19:07:00.809Z,10.67
2019-01-16T19:10:00.957Z,16.70
2019-01-16T19:12:52.971Z,12.13
2019-01-16T19:18:44.918Z,14.43
2019-01-16T19:21:39.623Z,12.70
2019-01-16T19:24:30.097Z,7.00
2019-01-16T19:27:22.350Z,9.30
2019-01-16T19:30:13.445Z,9.97
2019-01-16T19:33:01.898Z,7.90
2019-01-16T19:35:59.305Z,11.23
2019-01-16T19:38:54.185Z,6.63
2019-01-16T19:41:53.555Z,13.37
2019-01-16T19:44:52.995Z,11.97
2019-01-16T19:47:44.263Z,12.37
2019-01-16T19:50:36.882Z,15.67
2019-01-16T19:53:26.354Z,9.60
2019-01-16T19:56:17.151Z,10.80
2019-01-16T19:59:07.829Z,8.30
2019-01-16T20:02:08.055Z,13.63
2019-01-16T20:05:07.624Z,12.23
2019-01-16T20:08:07.055Z,15.57
2019-01-16T20:11:07.169Z,10.33
2019-01-16T20:14:06.963Z,17.10
2019-01-16T20:17:07.476Z,15.67
2019-01-16T20:19:57.754Z,11.87
2019-01-16T20:23:03.121Z,14.93
2019-01-16T20:25:53.726Z,16.70
2019-01-16T20:28:53.806Z,14.00
2019-01-16T20:31:54.405Z,9.50
2019-01-16T20:34:45.224Z,15.50
2019-01-16T20:37:45.361Z,11.27
2019-01-16T20:40:44.741Z,12.17
2019-01-16T20:43:41.017Z,10.53
2019-01-16T20:46:43.514Z,14.00
2019-01-16T20:49:43.013Z,11.37
2019-01-16T20:52:34.571Z,13.07
2019-01-16T20:55:34.543Z,13.37
2019-01-16T20:58:34.694Z,11.03
2019-01-16T21:01:35.079Z,14.50
2019-01-16T21:04:34.647Z,10.90
2019-01-16T21:07:34.259Z,11.60
2019-01-16T21:10:33.784Z,16.47
2019-01-16T21:13:33.333Z,17.23
2019-01-16T21:16:32.899Z,13.77
2019-01-16T21:19:32.531Z,15.03
2019-01-16T21:22:32.294Z,12.47
2019-01-16T21:25:08.187Z,9.83
2019-01-16T21:28:05.194Z,9.10
2019-01-16T21:30:51.557Z,14.20
2019-01-16T21:33:45.482Z,10.47
2019-01-16T21:36:36.158Z,19.07
2019-01-16T21:39:26.625Z,16.00
2019-01-16T21:42:09.740Z,12.87
2019-01-16T21:44:50.663Z,12.30
2019-01-16T21:47:56.694Z,11.43
2019-01-16T21:50:50.811Z,13.57
2019-01-16T21:53:40.895Z,17.07
2019-01-16T21:56:35.062Z,16.83
2019-01-16T21:59:20.218Z,14.40
2019-01-16T22:02:00.042Z,12.60
2019-01-16T22:04:52.863Z,12.93
2019-01-16T22:07:49.570Z,13.63
2019-01-16T22:10:47.398Z,12.53
2019-01-16T22:13:33.714Z,10.90
2019-01-16T22:16:30.954Z,14.50
2019-01-16T22:19:21.897Z,11.63
2019-01-16T22:22:15.862Z,16.27
2019-01-16T22:25:06.601Z,14.63
2019-01-16T22:27:42.040Z,20.00
2019-01-16T22:30:32.014Z,10.77
2019-01-16T22:33:06.527Z,16.07
2019-01-16T22:35:54.098Z,11.53
2019-01-16T22:39:00.158Z,13.60
2019-01-16T22:41:47.970Z,16.63
2019-01-16T22:44:50.792Z,15.40
2019-01-16T22:47:43.710Z,10.90
2019-01-16T22:50:24.607Z,12.07
2019-01-16T22:53:20.194Z,10.93
2019-01-16T22:56:20.046Z,11.40
2019-01-16T22:59:06.425Z,13.57
2019-01-16T23:02:06.152Z,14.17
2019-01-16T23:05:06.023Z,8.63
2019-01-16T23:07:53.834Z,15.83
2019-01-16T23:10:40.767Z,14.33
2019-01-16T23:13:21.533Z,12.73
2019-01-16T23:16:00.536Z,13.40
2019-01-16T23:18:57.446Z,16.17
2019-01-16T23:21:43.843Z,14.03
2019-01-16T23:24:17.955Z,14.80
2019-01-16T23:27:21.072Z,11.30
2019-01-16T23:30:11.527Z,18.33
2019-01-16T23:32:57.912Z,11.67
2019-01-16T23:35:34.681Z,11.23
2019-01-16T23:38:22.003Z,21.50
2019-01-16T23:41:15.294Z,12.87
2019-01-16T23:43:50.836Z,12.50
2019-01-16T23:46:38.344Z,11.47
2019-01-16T23:49:29.852Z,13.70
2019-01-16T23:52:08.386Z,13.67
2019-01-16T23:55:05.549Z,8.73
2019-01-16T23:57:52.932Z,16.50
